sensor_id;sensor_type;location;lat;lon;timestamp;P1;durP1;ratioP1;P2;durP2;ratioP2
59145;SDS011;44928;53.074;6.646;2023-05-16T00:00:17;20.65;;;2.97;;
59145;SDS011;44928;53.074;6.646;2023-05-16T00:02:44;20.90;;;3.13;;
59145;SDS011;44928;53.074;6.646;2023-05-16T00:05:09;12.75;;;2.75;;
59145;SDS011;44928;53.074;6.646;2023-05-16T00:07:38;14.32;;;3.22;;
59145;SDS011;44928;53.074;6.646;2023-05-16T00:10:06;16.48;;;2.92;;
59145;SDS011;44928;53.074;6.646;2023-05-16T00:12:32;15.82;;;3.10;;
59145;SDS011;44928;53.074;6.646;2023-05-16T00:15:01;12.23;;;2.20;;
59145;SDS011;44928;53.074;6.646;2023-05-16T00:17:29;16.92;;;2.80;;
59145;SDS011;44928;53.074;6.646;2023-05-16T00:19:55;18.15;;;2.80;;
59145;SDS011;44928;53.074;6.646;2023-05-16T00:22:23;14.05;;;2.78;;
59145;SDS011;44928;53.074;6.646;2023-05-16T00:24:49;22.00;;;3.83;;
59145;SDS011;44928;53.074;6.646;2023-05-16T00:27:15;13.73;;;2.30;;
59145;SDS011;44928;53.074;6.646;2023-05-16T00:29:41;20.33;;;2.90;;
59145;SDS011;44928;53.074;6.646;2023-05-16T00:32:07;17.13;;;2.40;;
59145;SDS011;44928;53.074;6.646;2023-05-16T00:34:33;14.10;;;2.40;;
59145;SDS011;44928;53.074;6.646;2023-05-16T00:36:59;12.38;;;2.20;;
59145;SDS011;44928;53.074;6.646;2023-05-16T00:39:25;12.95;;;2.67;;
59145;SDS011;44928;53.074;6.646;2023-05-16T00:41:51;12.27;;;2.33;;
59145;SDS011;44928;53.074;6.646;2023-05-16T00:44:17;13.43;;;2.95;;
59145;SDS011;44928;53.074;6.646;2023-05-16T00:46:43;14.48;;;2.00;;
59145;SDS011;44928;53.074;6.646;2023-05-16T00:49:09;14.55;;;2.40;;
59145;SDS011;44928;53.074;6.646;2023-05-16T00:51:35;14.35;;;2.58;;
59145;SDS011;44928;53.074;6.646;2023-05-16T00:54:03;14.70;;;2.20;;
59145;SDS011;44928;53.074;6.646;2023-05-16T00:56:30;14.70;;;1.90;;
59145;SDS011;44928;53.074;6.646;2023-05-16T00:58:56;16.98;;;2.72;;
59145;SDS011;44928;53.074;6.646;2023-05-16T01:01:22;14.63;;;2.33;;
59145;SDS011;44928;53.074;6.646;2023-05-16T01:03:51;10.73;;;1.95;;
59145;SDS011;44928;53.074;6.646;2023-05-16T01:06:17;11.02;;;1.73;;
59145;SDS011;44928;53.074;6.646;2023-05-16T01:08:43;12.38;;;2.42;;
59145;SDS011;44928;53.074;6.646;2023-05-16T01:13:49;13.95;;;2.33;;
59145;SDS011;44928;53.074;6.646;2023-05-16T01:19:00;16.02;;;2.35;;
59145;SDS011;44928;53.074;6.646;2023-05-16T01:21:47;13.13;;;1.92;;
59145;SDS011;44928;53.074;6.646;2023-05-16T01:24:32;10.02;;;1.90;;
59145;SDS011;44928;53.074;6.646;2023-05-16T01:27:00;10.90;;;1.92;;
59145;SDS011;44928;53.074;6.646;2023-05-16T01:29:28;13.75;;;2.15;;
59145;SDS011;44928;53.074;6.646;2023-05-16T01:31:54;12.15;;;2.33;;
59145;SDS011;44928;53.074;6.646;2023-05-16T01:34:22;14.40;;;3.13;;
59145;SDS011;44928;53.074;6.646;2023-05-16T01:37:01;10.85;;;2.28;;
59145;SDS011;44928;53.074;6.646;2023-05-16T01:40:29;9.02;;;1.70;;
59145;SDS011;44928;53.074;6.646;2023-05-16T01:43:16;11.57;;;2.00;;
59145;SDS011;44928;53.074;6.646;2023-05-16T01:45:50;12.68;;;2.30;;
59145;SDS011;44928;53.074;6.646;2023-05-16T01:48:22;12.93;;;2.38;;
59145;SDS011;44928;53.074;6.646;2023-05-16T01:50:53;10.77;;;2.10;;
59145;SDS011;44928;53.074;6.646;2023-05-16T01:53:22;14.20;;;2.20;;
59145;SDS011;44928;53.074;6.646;2023-05-16T01:55:52;13.90;;;1.85;;
59145;SDS011;44928;53.074;6.646;2023-05-16T01:58:22;12.13;;;1.88;;
59145;SDS011;44928;53.074;6.646;2023-05-16T02:00:53;12.23;;;2.33;;
59145;SDS011;44928;53.074;6.646;2023-05-16T02:03:19;9.93;;;1.88;;
59145;SDS011;44928;53.074;6.646;2023-05-16T02:05:44;17.02;;;3.10;;
59145;SDS011;44928;53.074;6.646;2023-05-16T02:08:10;11.52;;;2.50;;
59145;SDS011;44928;53.074;6.646;2023-05-16T02:10:37;11.00;;;2.67;;
59145;SDS011;44928;53.074;6.646;2023-05-16T02:13:05;11.05;;;1.50;;
59145;SDS011;44928;53.074;6.646;2023-05-16T02:15:31;14.57;;;2.50;;
59145;SDS011;44928;53.074;6.646;2023-05-16T02:17:56;14.07;;;2.70;;
59145;SDS011;44928;53.074;6.646;2023-05-16T02:20:22;13.23;;;2.25;;
59145;SDS011;44928;53.074;6.646;2023-05-16T02:22:48;10.00;;;2.05;;
59145;SDS011;44928;53.074;6.646;2023-05-16T02:25:14;12.30;;;1.50;;
59145;SDS011;44928;53.074;6.646;2023-05-16T02:27:40;14.98;;;2.47;;
59145;SDS011;44928;53.074;6.646;2023-05-16T02:30:07;11.82;;;1.92;;
59145;SDS011;44928;53.074;6.646;2023-05-16T02:32:39;14.70;;;2.60;;
59145;SDS011;44928;53.074;6.646;2023-05-16T02:35:05;13.95;;;2.22;;
59145;SDS011;44928;53.074;6.646;2023-05-16T02:37:32;11.85;;;2.17;;
59145;SDS011;44928;53.074;6.646;2023-05-16T02:39:58;13.45;;;2.40;;
59145;SDS011;44928;53.074;6.646;2023-05-16T02:42:26;12.75;;;1.92;;
59145;SDS011;44928;53.074;6.646;2023-05-16T02:44:53;15.43;;;2.75;;
59145;SDS011;44928;53.074;6.646;2023-05-16T02:47:19;13.93;;;2.05;;
59145;SDS011;44928;53.074;6.646;2023-05-16T02:49:45;10.73;;;2.47;;
59145;SDS011;44928;53.074;6.646;2023-05-16T02:52:10;13.98;;;2.08;;
59145;SDS011;44928;53.074;6.646;2023-05-16T02:54:37;11.80;;;2.15;;
59145;SDS011;44928;53.074;6.646;2023-05-16T02:57:03;12.52;;;2.05;;
59145;SDS011;44928;53.074;6.646;2023-05-16T02:59:29;16.33;;;3.17;;
59145;SDS011;44928;53.074;6.646;2023-05-16T03:01:54;10.20;;;1.63;;
59145;SDS011;44928;53.074;6.646;2023-05-16T03:04:20;11.18;;;1.98;;
59145;SDS011;44928;53.074;6.646;2023-05-16T03:06:47;14.27;;;2.30;;
59145;SDS011;44928;53.074;6.646;2023-05-16T03:09:15;17.38;;;2.78;;
59145;SDS011;44928;53.074;6.646;2023-05-16T03:11:41;13.50;;;2.35;;
59145;SDS011;44928;53.074;6.646;2023-05-16T03:14:07;14.60;;;2.72;;
59145;SDS011;44928;53.074;6.646;2023-05-16T03:16:33;12.40;;;2.03;;
59145;SDS011;44928;53.074;6.646;2023-05-16T03:19:00;10.65;;;1.90;;
59145;SDS011;44928;53.074;6.646;2023-05-16T03:21:27;14.63;;;2.60;;
59145;SDS011;44928;53.074;6.646;2023-05-16T03:23:52;10.57;;;1.80;;
59145;SDS011;44928;53.074;6.646;2023-05-16T03:26:19;12.10;;;2.17;;
59145;SDS011;44928;53.074;6.646;2023-05-16T03:28:46;13.05;;;2.00;;
59145;SDS011;44928;53.074;6.646;2023-05-16T03:31:12;9.40;;;1.90;;
59145;SDS011;44928;53.074;6.646;2023-05-16T03:33:39;12.05;;;2.05;;
59145;SDS011;44928;53.074;6.646;2023-05-16T03:36:04;10.45;;;2.30;;
59145;SDS011;44928;53.074;6.646;2023-05-16T03:38:31;14.25;;;2.38;;
59145;SDS011;44928;53.074;6.646;2023-05-16T03:40:56;11.80;;;1.90;;
59145;SDS011;44928;53.074;6.646;2023-05-16T03:43:23;10.95;;;2.63;;
59145;SDS011;44928;53.074;6.646;2023-05-16T03:45:48;14.40;;;2.40;;
59145;SDS011;44928;53.074;6.646;2023-05-16T03:48:14;15.32;;;2.42;;
59145;SDS011;44928;53.074;6.646;2023-05-16T03:50:40;12.43;;;2.15;;
59145;SDS011;44928;53.074;6.646;2023-05-16T03:53:06;10.63;;;2.40;;
59145;SDS011;44928;53.074;6.646;2023-05-16T03:55:32;15.23;;;2.35;;
59145;SDS011;44928;53.074;6.646;2023-05-16T03:57:59;15.10;;;2.25;;
59145;SDS011;44928;53.074;6.646;2023-05-16T04:00:24;14.63;;;2.63;;
59145;SDS011;44928;53.074;6.646;2023-05-16T04:02:51;11.70;;;2.22;;
59145;SDS011;44928;53.074;6.646;2023-05-16T04:05:16;11.90;;;2.20;;
59145;SDS011;44928;53.074;6.646;2023-05-16T04:07:42;10.65;;;2.13;;
59145;SDS011;44928;53.074;6.646;2023-05-16T04:10:08;15.05;;;2.28;;
59145;SDS011;44928;53.074;6.646;2023-05-16T04:12:34;13.43;;;2.65;;
59145;SDS011;44928;53.074;6.646;2023-05-16T04:15:01;14.48;;;2.78;;
59145;SDS011;44928;53.074;6.646;2023-05-16T04:17:31;15.07;;;2.53;;
59145;SDS011;44928;53.074;6.646;2023-05-16T04:19:57;16.55;;;3.20;;
59145;SDS011;44928;53.074;6.646;2023-05-16T04:22:24;12.73;;;2.03;;
59145;SDS011;44928;53.074;6.646;2023-05-16T04:24:50;14.68;;;3.00;;
59145;SDS011;44928;53.074;6.646;2023-05-16T04:27:15;16.70;;;3.25;;
59145;SDS011;44928;53.074;6.646;2023-05-16T04:29:41;10.82;;;2.40;;
59145;SDS011;44928;53.074;6.646;2023-05-16T04:32:07;16.13;;;2.58;;
59145;SDS011;44928;53.074;6.646;2023-05-16T04:34:33;14.23;;;2.45;;
59145;SDS011;44928;53.074;6.646;2023-05-16T04:37:02;12.43;;;2.72;;
59145;SDS011;44928;53.074;6.646;2023-05-16T04:39:29;13.50;;;2.38;;
59145;SDS011;44928;53.074;6.646;2023-05-16T04:41:56;11.77;;;2.00;;
59145;SDS011;44928;53.074;6.646;2023-05-16T04:44:23;12.32;;;2.10;;
59145;SDS011;44928;53.074;6.646;2023-05-16T04:46:50;16.60;;;2.40;;
59145;SDS011;44928;53.074;6.646;2023-05-16T04:49:17;14.07;;;2.50;;
59145;SDS011;44928;53.074;6.646;2023-05-16T04:51:43;12.40;;;2.30;;
59145;SDS011;44928;53.074;6.646;2023-05-16T04:54:09;11.70;;;1.75;;
59145;SDS011;44928;53.074;6.646;2023-05-16T04:56:35;11.98;;;2.35;;
59145;SDS011;44928;53.074;6.646;2023-05-16T04:59:01;9.93;;;1.50;;
59145;SDS011;44928;53.074;6.646;2023-05-16T05:01:28;15.57;;;2.55;;
59145;SDS011;44928;53.074;6.646;2023-05-16T05:03:54;8.70;;;1.90;;
59145;SDS011;44928;53.074;6.646;2023-05-16T05:06:20;12.52;;;2.33;;
59145;SDS011;44928;53.074;6.646;2023-05-16T05:08:46;11.95;;;2.28;;
59145;SDS011;44928;53.074;6.646;2023-05-16T05:11:12;12.23;;;2.17;;
59145;SDS011;44928;53.074;6.646;2023-05-16T05:13:38;13.07;;;2.38;;
59145;SDS011;44928;53.074;6.646;2023-05-16T05:16:04;14.18;;;3.97;;
59145;SDS011;44928;53.074;6.646;2023-05-16T05:18:30;14.45;;;2.25;;
59145;SDS011;44928;53.074;6.646;2023-05-16T05:20:57;10.43;;;1.58;;
59145;SDS011;44928;53.074;6.646;2023-05-16T05:23:22;17.67;;;2.55;;
59145;SDS011;44928;53.074;6.646;2023-05-16T05:25:48;9.35;;;1.70;;
59145;SDS011;44928;53.074;6.646;2023-05-16T05:28:14;13.90;;;2.20;;
59145;SDS011;44928;53.074;6.646;2023-05-16T05:30:40;14.50;;;2.55;;
59145;SDS011;44928;53.074;6.646;2023-05-16T05:33:06;11.55;;;2.53;;
59145;SDS011;44928;53.074;6.646;2023-05-16T05:35:32;7.28;;;1.63;;
59145;SDS011;44928;53.074;6.646;2023-05-16T05:37:58;9.07;;;2.10;;
59145;SDS011;44928;53.074;6.646;2023-05-16T05:40:23;12.05;;;2.17;;
59145;SDS011;44928;53.074;6.646;2023-05-16T05:42:49;9.30;;;1.90;;
59145;SDS011;44928;53.074;6.646;2023-05-16T05:45:15;13.77;;;1.80;;
59145;SDS011;44928;53.074;6.646;2023-05-16T05:47:41;10.40;;;2.28;;
59145;SDS011;44928;53.074;6.646;2023-05-16T05:50:08;13.27;;;2.05;;
59145;SDS011;44928;53.074;6.646;2023-05-16T05:52:35;13.48;;;1.73;;
59145;SDS011;44928;53.074;6.646;2023-05-16T05:55:02;11.05;;;1.85;;
59145;SDS011;44928;53.074;6.646;2023-05-16T05:57:28;9.05;;;1.30;;
59145;SDS011;44928;53.074;6.646;2023-05-16T05:59:53;7.90;;;1.60;;
59145;SDS011;44928;53.074;6.646;2023-05-16T06:02:19;12.85;;;2.10;;
59145;SDS011;44928;53.074;6.646;2023-05-16T06:04:45;7.80;;;1.65;;
59145;SDS011;44928;53.074;6.646;2023-05-16T06:07:11;13.68;;;2.30;;
59145;SDS011;44928;53.074;6.646;2023-05-16T06:09:37;9.80;;;1.80;;
59145;SDS011;44928;53.074;6.646;2023-05-16T06:12:03;10.73;;;2.05;;
59145;SDS011;44928;53.074;6.646;2023-05-16T06:14:29;10.90;;;1.88;;
59145;SDS011;44928;53.074;6.646;2023-05-16T06:16:54;13.75;;;1.90;;
59145;SDS011;44928;53.074;6.646;2023-05-16T06:19:20;10.73;;;2.60;;
59145;SDS011;44928;53.074;6.646;2023-05-16T06:21:46;11.88;;;1.95;;
59145;SDS011;44928;53.074;6.646;2023-05-16T06:24:12;10.57;;;1.88;;
59145;SDS011;44928;53.074;6.646;2023-05-16T06:26:38;8.30;;;1.83;;
59145;SDS011;44928;53.074;6.646;2023-05-16T06:29:03;11.00;;;2.13;;
59145;SDS011;44928;53.074;6.646;2023-05-16T06:31:29;11.63;;;1.60;;
59145;SDS011;44928;53.074;6.646;2023-05-16T06:33:55;9.07;;;1.73;;
59145;SDS011;44928;53.074;6.646;2023-05-16T06:36:21;12.40;;;1.90;;
59145;SDS011;44928;53.074;6.646;2023-05-16T06:38:48;12.32;;;2.10;;
59145;SDS011;44928;53.074;6.646;2023-05-16T06:41:14;12.05;;;1.48;;
59145;SDS011;44928;53.074;6.646;2023-05-16T06:43:40;8.95;;;1.75;;
59145;SDS011;44928;53.074;6.646;2023-05-16T06:46:06;10.98;;;1.92;;
59145;SDS011;44928;53.074;6.646;2023-05-16T06:48:31;10.10;;;1.60;;
59145;SDS011;44928;53.074;6.646;2023-05-16T06:50:57;7.03;;;1.10;;
59145;SDS011;44928;53.074;6.646;2023-05-16T06:53:23;7.03;;;0.95;;
59145;SDS011;44928;53.074;6.646;2023-05-16T06:55:50;11.07;;;1.50;;
59145;SDS011;44928;53.074;6.646;2023-05-16T06:58:16;8.88;;;1.30;;
59145;SDS011;44928;53.074;6.646;2023-05-16T07:00:41;5.05;;;1.00;;
59145;SDS011;44928;53.074;6.646;2023-05-16T07:03:08;7.35;;;1.00;;
59145;SDS011;44928;53.074;6.646;2023-05-16T07:05:33;7.70;;;1.48;;
59145;SDS011;44928;53.074;6.646;2023-05-16T07:07:59;7.90;;;1.42;;
59145;SDS011;44928;53.074;6.646;2023-05-16T07:10:25;8.70;;;1.50;;
59145;SDS011;44928;53.074;6.646;2023-05-16T07:12:51;6.43;;;1.20;;
59145;SDS011;44928;53.074;6.646;2023-05-16T07:15:17;8.15;;;1.48;;
59145;SDS011;44928;53.074;6.646;2023-05-16T07:17:42;8.25;;;1.33;;
59145;SDS011;44928;53.074;6.646;2023-05-16T07:20:08;9.27;;;1.52;;
59145;SDS011;44928;53.074;6.646;2023-05-16T07:22:37;5.57;;;1.00;;
59145;SDS011;44928;53.074;6.646;2023-05-16T07:25:04;11.32;;;1.45;;
59145;SDS011;44928;53.074;6.646;2023-05-16T07:27:30;7.35;;;1.50;;
59145;SDS011;44928;53.074;6.646;2023-05-16T07:29:56;9.02;;;1.77;;
59145;SDS011;44928;53.074;6.646;2023-05-16T07:32:22;7.97;;;1.60;;
59145;SDS011;44928;53.074;6.646;2023-05-16T07:34:48;8.93;;;1.65;;
59145;SDS011;44928;53.074;6.646;2023-05-16T07:37:13;10.88;;;1.77;;
59145;SDS011;44928;53.074;6.646;2023-05-16T07:39:40;7.78;;;1.58;;
59145;SDS011;44928;53.074;6.646;2023-05-16T07:42:06;10.77;;;1.40;;
59145;SDS011;44928;53.074;6.646;2023-05-16T07:44:33;9.88;;;1.42;;
59145;SDS011;44928;53.074;6.646;2023-05-16T07:47:00;9.35;;;1.40;;
59145;SDS011;44928;53.074;6.646;2023-05-16T07:49:26;8.60;;;1.40;;
59145;SDS011;44928;53.074;6.646;2023-05-16T07:51:51;8.35;;;1.42;;
59145;SDS011;44928;53.074;6.646;2023-05-16T07:54:17;15.07;;;2.42;;
59145;SDS011;44928;53.074;6.646;2023-05-16T07:56:43;9.07;;;1.70;;
59145;SDS011;44928;53.074;6.646;2023-05-16T07:59:08;10.25;;;2.00;;
59145;SDS011;44928;53.074;6.646;2023-05-16T08:01:34;9.60;;;1.75;;
59145;SDS011;44928;53.074;6.646;2023-05-16T08:04:01;11.27;;;1.45;;
59145;SDS011;44928;53.074;6.646;2023-05-16T08:06:26;7.30;;;1.45;;
59145;SDS011;44928;53.074;6.646;2023-05-16T08:08:53;8.20;;;1.50;;
59145;SDS011;44928;53.074;6.646;2023-05-16T08:11:20;8.25;;;1.17;;
59145;SDS011;44928;53.074;6.646;2023-05-16T08:13:46;8.90;;;1.50;;
59145;SDS011;44928;53.074;6.646;2023-05-16T08:16:13;9.52;;;1.70;;
59145;SDS011;44928;53.074;6.646;2023-05-16T08:18:38;6.78;;;1.27;;
59145;SDS011;44928;53.074;6.646;2023-05-16T08:21:04;10.70;;;1.40;;
59145;SDS011;44928;53.074;6.646;2023-05-16T08:23:30;7.00;;;1.20;;
59145;SDS011;44928;53.074;6.646;2023-05-16T08:25:56;8.52;;;1.35;;
59145;SDS011;44928;53.074;6.646;2023-05-16T08:28:22;11.68;;;1.60;;
59145;SDS011;44928;53.074;6.646;2023-05-16T08:30:48;9.80;;;1.60;;
59145;SDS011;44928;53.074;6.646;2023-05-16T08:33:14;12.52;;;1.90;;
59145;SDS011;44928;53.074;6.646;2023-05-16T08:35:43;8.25;;;1.80;;
59145;SDS011;44928;53.074;6.646;2023-05-16T08:38:10;11.70;;;1.67;;
59145;SDS011;44928;53.074;6.646;2023-05-16T08:40:36;13.63;;;2.22;;
59145;SDS011;44928;53.074;6.646;2023-05-16T08:43:01;7.88;;;1.20;;
59145;SDS011;44928;53.074;6.646;2023-05-16T08:45:28;10.07;;;1.52;;
59145;SDS011;44928;53.074;6.646;2023-05-16T08:47:55;10.80;;;1.75;;
59145;SDS011;44928;53.074;6.646;2023-05-16T08:50:21;9.02;;;1.40;;
59145;SDS011;44928;53.074;6.646;2023-05-16T08:52:50;10.40;;;2.05;;
59145;SDS011;44928;53.074;6.646;2023-05-16T08:55:18;7.95;;;1.60;;
59145;SDS011;44928;53.074;6.646;2023-05-16T08:57:45;9.82;;;1.65;;
59145;SDS011;44928;53.074;6.646;2023-05-16T09:00:13;14.43;;;2.03;;
59145;SDS011;44928;53.074;6.646;2023-05-16T09:02:39;11.55;;;2.13;;
59145;SDS011;44928;53.074;6.646;2023-05-16T09:05:16;11.60;;;2.00;;
59145;SDS011;44928;53.074;6.646;2023-05-16T09:07:42;9.77;;;1.70;;
59145;SDS011;44928;53.074;6.646;2023-05-16T09:10:08;11.85;;;1.90;;
59145;SDS011;44928;53.074;6.646;2023-05-16T09:12:35;10.68;;;2.00;;
59145;SDS011;44928;53.074;6.646;2023-05-16T09:15:05;9.63;;;1.70;;
59145;SDS011;44928;53.074;6.646;2023-05-16T09:17:35;7.57;;;1.40;;
59145;SDS011;44928;53.074;6.646;2023-05-16T09:22:54;13.93;;;1.90;;
59145;SDS011;44928;53.074;6.646;2023-05-16T09:25:22;10.20;;;1.63;;
59145;SDS011;44928;53.074;6.646;2023-05-16T09:27:52;10.80;;;1.85;;
59145;SDS011;44928;53.074;6.646;2023-05-16T09:30:26;6.60;;;1.40;;
59145;SDS011;44928;53.074;6.646;2023-05-16T09:32:54;9.02;;;1.60;;
59145;SDS011;44928;53.074;6.646;2023-05-16T09:35:20;8.07;;;1.30;;
59145;SDS011;44928;53.074;6.646;2023-05-16T09:37:48;7.57;;;1.50;;
59145;SDS011;44928;53.074;6.646;2023-05-16T09:40:14;5.45;;;1.20;;
59145;SDS011;44928;53.074;6.646;2023-05-16T09:42:41;8.32;;;1.77;;
59145;SDS011;44928;53.074;6.646;2023-05-16T09:45:11;7.85;;;1.38;;
59145;SDS011;44928;53.074;6.646;2023-05-16T09:47:38;6.20;;;1.38;;
59145;SDS011;44928;53.074;6.646;2023-05-16T09:50:10;9.40;;;1.50;;
59145;SDS011;44928;53.074;6.646;2023-05-16T09:52:40;11.52;;;1.67;;
59145;SDS011;44928;53.074;6.646;2023-05-16T09:55:07;11.70;;;1.67;;
59145;SDS011;44928;53.074;6.646;2023-05-16T09:57:37;10.80;;;1.50;;
59145;SDS011;44928;53.074;6.646;2023-05-16T10:00:05;11.20;;;2.03;;
59145;SDS011;44928;53.074;6.646;2023-05-16T10:02:34;10.57;;;1.73;;
59145;SDS011;44928;53.074;6.646;2023-05-16T10:05:02;8.77;;;1.10;;
59145;SDS011;44928;53.074;6.646;2023-05-16T10:07:29;7.50;;;1.25;;
59145;SDS011;44928;53.074;6.646;2023-05-16T10:09:57;12.40;;;1.70;;
59145;SDS011;44928;53.074;6.646;2023-05-16T10:12:28;9.07;;;1.48;;
59145;SDS011;44928;53.074;6.646;2023-05-16T10:14:58;8.05;;;1.33;;
59145;SDS011;44928;53.074;6.646;2023-05-16T10:17:25;8.43;;;1.30;;
59145;SDS011;44928;53.074;6.646;2023-05-16T10:19:53;9.90;;;1.42;;
59145;SDS011;44928;53.074;6.646;2023-05-16T10:22:19;10.15;;;1.60;;
59145;SDS011;44928;53.074;6.646;2023-05-16T10:24:50;9.73;;;1.55;;
59145;SDS011;44928;53.074;6.646;2023-05-16T10:27:34;10.13;;;1.73;;
59145;SDS011;44928;53.074;6.646;2023-05-16T10:30:00;8.15;;;1.25;;
59145;SDS011;44928;53.074;6.646;2023-05-16T10:32:27;9.68;;;1.80;;
59145;SDS011;44928;53.074;6.646;2023-05-16T10:34:53;7.85;;;1.45;;
59145;SDS011;44928;53.074;6.646;2023-05-16T10:37:20;8.80;;;1.20;;
59145;SDS011;44928;53.074;6.646;2023-05-16T10:39:47;11.40;;;1.98;;
59145;SDS011;44928;53.074;6.646;2023-05-16T10:42:13;7.93;;;1.40;;
59145;SDS011;44928;53.074;6.646;2023-05-16T10:44:42;11.85;;;1.40;;
59145;SDS011;44928;53.074;6.646;2023-05-16T10:47:08;12.02;;;1.83;;
59145;SDS011;44928;53.074;6.646;2023-05-16T10:49:33;9.50;;;1.48;;
59145;SDS011;44928;53.074;6.646;2023-05-16T10:54:40;9.38;;;1.42;;
59145;SDS011;44928;53.074;6.646;2023-05-16T10:57:08;8.60;;;1.50;;
59145;SDS011;44928;53.074;6.646;2023-05-16T10:59:48;6.07;;;1.30;;
59145;SDS011;44928;53.074;6.646;2023-05-16T11:04:48;6.50;;;1.58;;
59145;SDS011;44928;53.074;6.646;2023-05-16T11:07:16;7.43;;;1.45;;
59145;SDS011;44928;53.074;6.646;2023-05-16T11:09:43;8.25;;;1.15;;
59145;SDS011;44928;53.074;6.646;2023-05-16T11:12:10;6.82;;;1.45;;
59145;SDS011;44928;53.074;6.646;2023-05-16T11:14:37;7.20;;;1.00;;
59145;SDS011;44928;53.074;6.646;2023-05-16T11:19:51;7.03;;;1.25;;
59145;SDS011;44928;53.074;6.646;2023-05-16T11:22:32;6.72;;;1.10;;
59145;SDS011;44928;53.074;6.646;2023-05-16T11:25:05;6.72;;;1.00;;
59145;SDS011;44928;53.074;6.646;2023-05-16T11:30:17;8.80;;;1.50;;
59145;SDS011;44928;53.074;6.646;2023-05-16T11:32:44;8.00;;;1.38;;
59145;SDS011;44928;53.074;6.646;2023-05-16T11:35:12;8.50;;;1.67;;
59145;SDS011;44928;53.074;6.646;2023-05-16T11:37:39;8.93;;;1.83;;
59145;SDS011;44928;53.074;6.646;2023-05-16T11:40:06;7.95;;;1.80;;
59145;SDS011;44928;53.074;6.646;2023-05-16T11:42:39;7.18;;;1.70;;
59145;SDS011;44928;53.074;6.646;2023-05-16T11:45:09;6.45;;;1.30;;
59145;SDS011;44928;53.074;6.646;2023-05-16T11:47:37;7.25;;;1.55;;
59145;SDS011;44928;53.074;6.646;2023-05-16T11:50:10;9.68;;;2.20;;
59145;SDS011;44928;53.074;6.646;2023-05-16T11:55:22;8.43;;;1.48;;
59145;SDS011;44928;53.074;6.646;2023-05-16T11:57:53;10.27;;;1.98;;
59145;SDS011;44928;53.074;6.646;2023-05-16T12:00:20;9.18;;;2.10;;
59145;SDS011;44928;53.074;6.646;2023-05-16T12:02:49;9.90;;;1.88;;
59145;SDS011;44928;53.074;6.646;2023-05-16T12:05:15;8.65;;;1.90;;
59145;SDS011;44928;53.074;6.646;2023-05-16T12:07:42;11.85;;;2.25;;
59145;SDS011;44928;53.074;6.646;2023-05-16T12:10:10;9.20;;;1.85;;
59145;SDS011;44928;53.074;6.646;2023-05-16T12:12:39;8.35;;;2.15;;
59145;SDS011;44928;53.074;6.646;2023-05-16T12:15:06;9.98;;;2.30;;
59145;SDS011;44928;53.074;6.646;2023-05-16T12:17:36;9.88;;;1.98;;
59145;SDS011;44928;53.074;6.646;2023-05-16T12:20:04;8.40;;;2.05;;
59145;SDS011;44928;53.074;6.646;2023-05-16T12:22:33;7.00;;;1.70;;
59145;SDS011;44928;53.074;6.646;2023-05-16T12:25:00;7.97;;;2.13;;
59145;SDS011;44928;53.074;6.646;2023-05-16T12:27:48;11.18;;;2.53;;
59145;SDS011;44928;53.074;6.646;2023-05-16T12:30:16;8.68;;;2.35;;
59145;SDS011;44928;53.074;6.646;2023-05-16T12:32:42;6.80;;;2.05;;
59145;SDS011;44928;53.074;6.646;2023-05-16T12:35:09;8.88;;;2.30;;
59145;SDS011;44928;53.074;6.646;2023-05-16T12:37:37;9.85;;;2.08;;
59145;SDS011;44928;53.074;6.646;2023-05-16T12:40:03;10.38;;;2.35;;
59145;SDS011;44928;53.074;6.646;2023-05-16T12:42:30;9.10;;;2.17;;
59145;SDS011;44928;53.074;6.646;2023-05-16T12:44:55;11.30;;;2.20;;
59145;SDS011;44928;53.074;6.646;2023-05-16T12:47:21;9.93;;;2.30;;
59145;SDS011;44928;53.074;6.646;2023-05-16T12:49:47;7.68;;;1.80;;
59145;SDS011;44928;53.074;6.646;2023-05-16T12:52:18;10.70;;;2.10;;
59145;SDS011;44928;53.074;6.646;2023-05-16T12:54:45;9.30;;;2.20;;
59145;SDS011;44928;53.074;6.646;2023-05-16T12:57:12;11.13;;;2.40;;
59145;SDS011;44928;53.074;6.646;2023-05-16T12:59:38;9.00;;;2.30;;
59145;SDS011;44928;53.074;6.646;2023-05-16T13:02:04;7.68;;;2.13;;
59145;SDS011;44928;53.074;6.646;2023-05-16T13:04:30;9.93;;;2.17;;
59145;SDS011;44928;53.074;6.646;2023-05-16T13:06:56;9.50;;;2.35;;
59145;SDS011;44928;53.074;6.646;2023-05-16T13:09:22;13.18;;;2.90;;
59145;SDS011;44928;53.074;6.646;2023-05-16T13:11:48;10.68;;;2.95;;
59145;SDS011;44928;53.074;6.646;2023-05-16T13:14:15;9.65;;;2.50;;
59145;SDS011;44928;53.074;6.646;2023-05-16T13:16:41;8.40;;;2.90;;
59145;SDS011;44928;53.074;6.646;2023-05-16T13:19:08;8.75;;;2.20;;
59145;SDS011;44928;53.074;6.646;2023-05-16T13:21:34;9.90;;;2.15;;
59145;SDS011;44928;53.074;6.646;2023-05-16T13:24:00;10.45;;;2.42;;
59145;SDS011;44928;53.074;6.646;2023-05-16T13:26:26;10.07;;;2.17;;
59145;SDS011;44928;53.074;6.646;2023-05-16T13:28:52;10.82;;;2.40;;
59145;SDS011;44928;53.074;6.646;2023-05-16T13:31:19;9.98;;;2.35;;
59145;SDS011;44928;53.074;6.646;2023-05-16T13:33:46;10.50;;;2.53;;
59145;SDS011;44928;53.074;6.646;2023-05-16T13:36:12;9.90;;;2.60;;
59145;SDS011;44928;53.074;6.646;2023-05-16T13:38:38;10.75;;;2.72;;
59145;SDS011;44928;53.074;6.646;2023-05-16T13:41:04;9.65;;;2.58;;
59145;SDS011;44928;53.074;6.646;2023-05-16T13:43:30;9.50;;;2.58;;
59145;SDS011;44928;53.074;6.646;2023-05-16T13:45:55;9.80;;;2.58;;
59145;SDS011;44928;53.074;6.646;2023-05-16T13:48:21;9.57;;;2.30;;
59145;SDS011;44928;53.074;6.646;2023-05-16T13:50:47;8.40;;;2.20;;
59145;SDS011;44928;53.074;6.646;2023-05-16T13:53:12;10.55;;;2.13;;
59145;SDS011;44928;53.074;6.646;2023-05-16T13:55:38;8.52;;;2.70;;
59145;SDS011;44928;53.074;6.646;2023-05-16T13:58:04;8.32;;;2.50;;
59145;SDS011;44928;53.074;6.646;2023-05-16T14:00:30;8.07;;;2.15;;
59145;SDS011;44928;53.074;6.646;2023-05-16T14:02:56;8.82;;;2.00;;
59145;SDS011;44928;53.074;6.646;2023-05-16T14:05:22;8.05;;;2.05;;
59145;SDS011;44928;53.074;6.646;2023-05-16T14:07:47;8.73;;;2.28;;
59145;SDS011;44928;53.074;6.646;2023-05-16T14:10:13;9.48;;;2.60;;
59145;SDS011;44928;53.074;6.646;2023-05-16T14:12:39;8.15;;;2.30;;
59145;SDS011;44928;53.074;6.646;2023-05-16T14:15:05;7.13;;;2.10;;
59145;SDS011;44928;53.074;6.646;2023-05-16T14:17:31;8.77;;;2.35;;
59145;SDS011;44928;53.074;6.646;2023-05-16T14:19:57;6.45;;;2.28;;
59145;SDS011;44928;53.074;6.646;2023-05-16T14:22:23;8.32;;;2.30;;
59145;SDS011;44928;53.074;6.646;2023-05-16T14:24:48;8.65;;;2.20;;
59145;SDS011;44928;53.074;6.646;2023-05-16T14:27:14;7.68;;;2.30;;
59145;SDS011;44928;53.074;6.646;2023-05-16T14:29:41;6.18;;;1.90;;
59145;SDS011;44928;53.074;6.646;2023-05-16T14:32:08;7.60;;;2.05;;
59145;SDS011;44928;53.074;6.646;2023-05-16T14:34:35;9.50;;;2.30;;
59145;SDS011;44928;53.074;6.646;2023-05-16T14:37:01;7.72;;;2.08;;
59145;SDS011;44928;53.074;6.646;2023-05-16T14:39:26;6.53;;;1.95;;
59145;SDS011;44928;53.074;6.646;2023-05-16T14:41:52;10.18;;;2.55;;
59145;SDS011;44928;53.074;6.646;2023-05-16T14:44:18;8.00;;;2.28;;
59145;SDS011;44928;53.074;6.646;2023-05-16T14:46:45;7.78;;;1.83;;
59145;SDS011;44928;53.074;6.646;2023-05-16T14:49:11;8.57;;;1.88;;
59145;SDS011;44928;53.074;6.646;2023-05-16T14:51:37;7.60;;;2.08;;
59145;SDS011;44928;53.074;6.646;2023-05-16T14:54:03;9.48;;;1.90;;
59145;SDS011;44928;53.074;6.646;2023-05-16T14:56:29;6.72;;;2.00;;
59145;SDS011;44928;53.074;6.646;2023-05-16T14:58:56;6.97;;;2.10;;
59145;SDS011;44928;53.074;6.646;2023-05-16T15:01:22;9.50;;;2.05;;